createdAt,value
2018-05-02T00:00:12.524Z,89.20
2018-05-02T00:02:40.035Z,89.50
2018-05-02T00:05:08.317Z,90.10
2018-05-02T00:07:36.587Z,90.20
2018-05-02T00:10:04.964Z,90.30
2018-05-02T00:12:33.215Z,90.50
2018-05-02T00:15:00.731Z,90.50
2018-05-02T00:17:28.204Z,90.50
2018-05-02T00:19:55.754Z,90.70
2018-05-02T00:22:23.516Z,90.70
2018-05-02T00:24:50.993Z,90.70
2018-05-02T00:27:18.486Z,90.70
2018-05-02T00:29:45.986Z,90.70
2018-05-02T00:32:13.504Z,90.70
2018-05-02T00:34:40.988Z,90.90
2018-05-02T00:37:08.471Z,90.90
2018-05-02T00:39:36.005Z,91.00
2018-05-02T00:42:03.503Z,91.10
2018-05-02T00:44:31.014Z,91.40
2018-05-02T00:46:59.237Z,91.50
2018-05-02T00:49:26.756Z,91.50
2018-05-02T00:51:54.246Z,91.60
2018-05-02T00:54:21.753Z,91.60
2018-05-02T00:56:50.031Z,91.70
2018-05-02T00:59:18.260Z,91.90
2018-05-02T01:01:45.752Z,91.80
2018-05-02T01:04:14.005Z,91.60
2018-05-02T01:06:41.528Z,91.60
2018-05-02T01:09:09.028Z,91.50
2018-05-02T01:11:36.616Z,91.30
2018-05-02T01:14:04.844Z,91.10
2018-05-02T01:16:32.368Z,91.00
2018-05-02T01:18:59.862Z,91.10
2018-05-02T01:21:27.380Z,91.20
2018-05-02T01:23:54.876Z,91.40
2018-05-02T01:26:23.035Z,90.90
2018-05-02T01:28:50.555Z,91.10
2018-05-02T01:31:18.791Z,91.00
2018-05-02T01:33:46.387Z,90.90
2018-05-02T01:36:14.651Z,90.60
2018-05-02T01:38:42.129Z,90.60
2018-05-02T01:41:10.400Z,90.60
2018-05-02T01:43:46.761Z,90.60
2018-05-02T01:46:14.260Z,90.60
2018-05-02T01:48:53.658Z,90.50
2018-05-02T01:51:21.970Z,90.50
2018-05-02T01:53:49.448Z,90.50
2018-05-02T01:56:16.948Z,90.40
2018-05-02T01:58:45.208Z,90.40
2018-05-02T02:01:12.704Z,90.40
2018-05-02T02:03:40.240Z,90.40
2018-05-02T02:06:08.500Z,90.60
2018-05-02T02:08:36.084Z,90.60
2018-05-02T02:11:04.342Z,91.10
2018-05-02T02:13:31.833Z,91.10
2018-05-02T02:15:59.378Z,91.20
2018-05-02T02:18:27.656Z,91.00
2018-05-02T02:20:55.908Z,90.70
2018-05-02T02:23:23.396Z,90.60
2018-05-02T02:25:51.661Z,91.00
2018-05-02T02:28:19.937Z,91.20
2018-05-02T02:30:48.189Z,91.10
2018-05-02T02:33:15.691Z,91.10
2018-05-02T02:35:43.194Z,90.70
2018-05-02T02:38:10.702Z,90.90
2018-05-02T02:40:39.091Z,91.20
2018-05-02T02:43:06.625Z,91.10
2018-05-02T02:45:34.953Z,91.50
2018-05-02T02:48:02.473Z,91.40
2018-05-02T02:50:30.721Z,92.10
2018-05-02T02:52:58.191Z,92.00
2018-05-02T02:55:26.483Z,92.40
2018-05-02T02:57:54.765Z,92.40
2018-05-02T03:00:22.269Z,92.30
2018-05-02T03:02:49.909Z,92.60
2018-05-02T03:05:17.373Z,92.80
2018-05-02T03:07:44.864Z,92.90
2018-05-02T03:10:12.369Z,93.40
2018-05-02T03:12:39.934Z,93.70
2018-05-02T03:15:07.401Z,93.90
2018-05-02T03:17:34.917Z,94.00
2018-05-02T03:20:03.160Z,94.00
2018-05-02T03:22:30.668Z,94.00
2018-05-02T03:24:58.207Z,93.80
2018-05-02T03:27:26.475Z,93.50
2018-05-02T03:29:53.973Z,93.50
2018-05-02T03:32:21.529Z,93.40
2018-05-02T03:34:49.174Z,93.50
2018-05-02T03:37:16.634Z,93.50
2018-05-02T03:39:44.292Z,93.80
2018-05-02T03:42:11.826Z,94.00
2018-05-02T03:44:39.397Z,94.20
2018-05-02T03:47:07.681Z,94.20
2018-05-02T03:49:35.924Z,94.20
2018-05-02T03:52:03.510Z,94.20
2018-05-02T03:54:31.762Z,94.20
2018-05-02T03:56:59.346Z,94.20
2018-05-02T04:02:47.102Z,94.10
2018-05-02T04:05:27.166Z,94.20
2018-05-02T04:07:55.424Z,94.10
2018-05-02T04:10:23.666Z,94.00
2018-05-02T04:12:51.144Z,94.00
2018-05-02T04:15:18.640Z,93.90
2018-05-02T04:17:46.096Z,93.80
2018-05-02T04:20:13.592Z,93.70
2018-05-02T04:22:41.143Z,93.50
2018-05-02T04:25:08.666Z,93.30
2018-05-02T04:27:36.902Z,93.00
2018-05-02T04:30:04.382Z,93.00
2018-05-02T04:32:32.666Z,93.30
2018-05-02T04:35:00.928Z,92.90
2018-05-02T04:37:28.565Z,92.90
2018-05-02T04:39:56.772Z,92.80
2018-05-02T04:42:25.063Z,92.50
2018-05-02T04:44:52.566Z,92.50
2018-05-02T04:47:23.255Z,92.20
2018-05-02T04:49:50.797Z,91.90
2018-05-02T04:52:19.041Z,91.90
2018-05-02T04:54:46.549Z,91.90
2018-05-02T04:57:14.050Z,92.00
2018-05-02T04:59:41.580Z,92.00
2018-05-02T05:02:09.415Z,91.80
2018-05-02T05:04:37.975Z,91.50
2018-05-02T05:07:05.553Z,91.40
2018-05-02T05:09:33.801Z,91.20
2018-05-02T05:12:01.389Z,91.20
2018-05-02T05:14:29.967Z,91.70
2018-05-02T05:16:57.454Z,91.40
2018-05-02T05:19:24.941Z,91.40
2018-05-02T05:21:52.449Z,91.40
2018-05-02T05:24:20.834Z,91.50
2018-05-02T05:26:49.101Z,91.40
2018-05-02T05:29:17.384Z,91.60
2018-05-02T05:31:45.798Z,91.10
2018-05-02T05:34:14.405Z,91.10
2018-05-02T05:36:42.533Z,91.00
2018-05-02T05:39:10.025Z,90.80
2018-05-02T05:41:37.544Z,90.20
2018-05-02T05:44:05.799Z,89.50
2018-05-02T05:46:34.060Z,89.70
2018-05-02T05:49:01.573Z,89.60
2018-05-02T05:51:29.085Z,90.00
2018-05-02T05:53:56.678Z,89.60
2018-05-02T05:56:24.084Z,88.80
2018-05-02T05:58:51.576Z,89.50
2018-05-02T06:01:19.965Z,88.20
2018-05-02T06:03:48.213Z,87.50
2018-05-02T06:06:15.888Z,87.50
2018-05-02T06:08:44.178Z,85.80
2018-05-02T06:11:12.446Z,84.90
2018-05-02T06:13:40.728Z,84.90
2018-05-02T06:16:09.033Z,85.70
2018-05-02T06:18:36.554Z,85.60
2018-05-02T06:21:04.833Z,83.20
2018-05-02T06:23:33.093Z,82.60
2018-05-02T06:26:00.599Z,82.60
2018-05-02T06:28:28.088Z,81.10
2018-05-02T06:30:55.589Z,81.10
2018-05-02T06:33:23.827Z,80.20
2018-05-02T06:35:51.409Z,80.10
2018-05-02T06:38:18.915Z,78.30
2018-05-02T06:40:46.403Z,77.10
2018-05-02T06:43:13.997Z,76.10
2018-05-02T06:45:42.263Z,74.60
2018-05-02T06:48:10.547Z,75.20
2018-05-02T06:50:38.830Z,73.70
2018-05-02T06:53:07.239Z,72.40
2018-05-02T06:55:34.749Z,72.30
2018-05-02T06:58:02.333Z,71.90
2018-05-02T07:00:29.915Z,71.10
2018-05-02T07:02:57.404Z,70.10
2018-05-02T07:05:24.904Z,69.30
2018-05-02T07:07:52.412Z,68.80
2018-05-02T07:10:20.299Z,67.30
2018-05-02T07:12:47.785Z,67.80
2018-05-02T07:15:15.299Z,67.10
2018-05-02T07:17:43.628Z,65.30
2018-05-02T07:20:11.546Z,65.20
2018-05-02T07:22:39.082Z,63.90
2018-05-02T07:25:06.632Z,65.30
2018-05-02T07:27:34.163Z,64.80
2018-05-02T07:30:01.669Z,64.00
2018-05-02T07:32:29.195Z,63.70
2018-05-02T07:34:56.693Z,64.40
2018-05-02T07:37:24.200Z,64.00
2018-05-02T07:39:51.705Z,63.60
2018-05-02T07:42:19.338Z,63.80
2018-05-02T07:44:46.907Z,63.80
2018-05-02T07:47:14.414Z,62.40
2018-05-02T07:49:41.922Z,60.80
2018-05-02T07:52:09.460Z,60.10
2018-05-02T07:54:36.986Z,60.10
2018-05-02T07:57:05.264Z,57.50
2018-05-02T07:59:33.612Z,58.10
2018-05-02T08:02:01.143Z,58.10
2018-05-02T08:04:29.624Z,58.00
2018-05-02T08:06:57.184Z,58.90
2018-05-02T08:09:24.667Z,59.10
2018-05-02T08:11:52.204Z,59.10
2018-05-02T08:14:19.844Z,59.00
2018-05-02T08:16:47.455Z,58.90
2018-05-02T08:19:15.648Z,58.40
2018-05-02T08:21:48.572Z,58.30
2018-05-02T08:24:17.062Z,57.40
2018-05-02T08:26:44.558Z,57.30
2018-05-02T08:29:12.136Z,55.60
2018-05-02T08:31:40.451Z,53.40
2018-05-02T08:34:07.947Z,53.40
2018-05-02T08:36:35.446Z,53.30
2018-05-02T08:39:02.989Z,52.70
2018-05-02T08:41:31.250Z,51.70
2018-05-02T08:43:58.758Z,51.60
2018-05-02T08:46:26.283Z,50.90
2018-05-02T08:48:54.872Z,50.10
2018-05-02T08:51:23.108Z,52.00
2018-05-02T08:53:50.636Z,51.90
2018-05-02T08:56:18.129Z,50.90
2018-05-02T08:58:45.634Z,49.70
2018-05-02T09:01:13.164Z,48.20
2018-05-02T09:03:41.450Z,45.80
2018-05-02T09:06:10.148Z,46.10
2018-05-02T09:08:37.695Z,46.00
2018-05-02T09:11:05.953Z,46.30
2018-05-02T09:13:34.795Z,47.30
2018-05-02T09:16:02.282Z,46.60
2018-05-02T09:18:29.789Z,46.40
2018-05-02T09:20:57.278Z,46.60
2018-05-02T09:23:25.097Z,44.60
2018-05-02T09:25:53.376Z,44.70
2018-05-02T09:28:20.878Z,44.70
2018-05-02T09:30:48.379Z,41.80
2018-05-02T09:33:16.749Z,44.90
2018-05-02T09:35:45.080Z,44.70
2018-05-02T09:38:12.579Z,44.10
2018-05-02T09:40:40.098Z,42.80
2018-05-02T09:43:07.613Z,44.30
2018-05-02T09:45:35.904Z,45.10
2018-05-02T09:48:03.416Z,45.10
2018-05-02T09:50:30.901Z,42.70
2018-05-02T09:52:59.176Z,43.60
2018-05-02T09:55:27.437Z,45.10
2018-05-02T09:57:56.042Z,44.30
2018-05-02T10:00:24.308Z,42.40
2018-05-02T10:02:52.585Z,41.60
2018-05-02T10:05:20.089Z,41.00
2018-05-02T10:07:47.610Z,43.20
2018-05-02T10:10:15.468Z,42.90
2018-05-02T10:12:43.752Z,39.10
2018-05-02T10:15:11.196Z,39.00
2018-05-02T10:17:39.549Z,42.20
2018-05-02T10:20:07.041Z,42.10
2018-05-02T10:22:35.471Z,42.00
2018-05-02T10:25:03.060Z,42.10
2018-05-02T10:27:31.357Z,42.50
2018-05-02T10:29:59.668Z,42.70
2018-05-02T10:32:27.195Z,42.70
2018-05-02T10:34:55.461Z,44.10
2018-05-02T10:37:23.736Z,43.80
2018-05-02T10:39:52.277Z,43.90
2018-05-02T10:42:19.784Z,43.80
2018-05-02T10:44:48.172Z,43.10
2018-05-02T10:47:16.449Z,42.50
2018-05-02T10:49:44.877Z,42.50
2018-05-02T10:52:12.382Z,43.20
2018-05-02T10:54:46.970Z,43.00
2018-05-02T10:57:14.475Z,42.90
2018-05-02T10:59:42.098Z,43.80
2018-05-02T11:02:10.354Z,43.90
2018-05-02T11:04:37.888Z,43.90
2018-05-02T11:07:05.420Z,45.00
2018-05-02T11:09:32.962Z,43.60
2018-05-02T11:12:01.340Z,43.70
2018-05-02T11:14:29.680Z,43.70
2018-05-02T11:16:57.192Z,43.60
2018-05-02T11:19:24.720Z,43.00
2018-05-02T11:21:53.038Z,42.80
2018-05-02T11:24:20.535Z,42.70
2018-05-02T11:26:48.075Z,43.60
2018-05-02T11:29:15.579Z,42.30
2018-05-02T11:31:43.851Z,43.30
2018-05-02T11:34:12.134Z,45.00
2018-05-02T11:36:40.407Z,44.60
2018-05-02T11:39:08.699Z,43.20
2018-05-02T11:41:36.967Z,44.50
2018-05-02T11:44:05.359Z,44.40
2018-05-02T11:46:33.625Z,42.80
2018-05-02T11:49:02.329Z,42.50
2018-05-02T11:51:29.831Z,42.40
2018-05-02T11:53:57.346Z,42.40
2018-05-02T11:56:24.925Z,42.00
2018-05-02T11:58:52.447Z,42.70
2018-05-02T12:01:20.721Z,42.90
2018-05-02T12:03:49.017Z,45.30
2018-05-02T12:06:17.281Z,45.00
2018-05-02T12:08:44.785Z,45.00
2018-05-02T12:11:12.325Z,44.80
2018-05-02T12:13:39.847Z,43.50
2018-05-02T12:16:08.288Z,43.30
2018-05-02T12:18:39.463Z,43.90
2018-05-02T12:21:07.036Z,43.90
2018-05-02T12:23:35.292Z,44.70
2018-05-02T12:26:03.581Z,44.50
2018-05-02T12:28:31.845Z,44.60
2018-05-02T12:30:59.731Z,44.60
2018-05-02T12:33:28.391Z,44.10
2018-05-02T12:35:57.427Z,45.10
2018-05-02T12:38:24.931Z,44.50
2018-05-02T12:40:52.447Z,44.70
2018-05-02T12:43:19.918Z,44.30
2018-05-02T12:45:47.433Z,45.40
2018-05-02T12:48:15.733Z,46.80
2018-05-02T12:50:43.255Z,46.80
2018-05-02T12:53:10.760Z,46.80
2018-05-02T12:55:39.097Z,46.00
2018-05-02T12:58:07.373Z,45.50
2018-05-02T13:00:35.623Z,45.90
2018-05-02T13:03:03.120Z,45.70
2018-05-02T13:05:31.401Z,44.30
2018-05-02T13:07:58.885Z,44.30
2018-05-02T13:10:26.397Z,44.50
2018-05-02T13:12:53.977Z,44.50
2018-05-02T13:15:22.262Z,45.30
2018-05-02T13:17:49.809Z,45.40
2018-05-02T13:20:18.161Z,44.70
2018-05-02T13:22:45.667Z,44.70
2018-05-02T13:25:13.143Z,45.50
2018-05-02T13:27:40.973Z,45.80
2018-05-02T13:30:08.531Z,45.10
2018-05-02T13:32:36.819Z,45.10
2018-05-02T13:35:05.831Z,45.10
2018-05-02T13:37:33.487Z,46.20
2018-05-02T13:40:00.998Z,46.40
2018-05-02T13:42:30.008Z,47.40
2018-05-02T13:44:58.316Z,47.50
2018-05-02T13:47:25.818Z,47.50
2018-05-02T13:49:53.366Z,47.80
2018-05-02T13:52:20.856Z,47.50
2018-05-02T13:54:49.110Z,47.20
2018-05-02T13:57:16.683Z,47.20
2018-05-02T13:59:44.935Z,47.80
2018-05-02T14:02:13.332Z,47.60
2018-05-02T14:04:41.657Z,45.90
2018-05-02T14:07:09.530Z,45.80
2018-05-02T14:09:37.076Z,47.70
2018-05-02T14:12:04.548Z,46.80
2018-05-02T14:14:32.062Z,47.80
2018-05-02T14:17:00.319Z,47.90
2018-05-02T14:19:27.825Z,47.90
2018-05-02T14:21:55.333Z,47.90
2018-05-02T14:24:23.230Z,47.60
2018-05-02T14:26:51.503Z,48.50
2018-05-02T14:29:19.761Z,48.10
2018-05-02T14:31:47.305Z,48.00
2018-05-02T14:34:14.833Z,48.60
2018-05-02T14:36:42.375Z,48.20
2018-05-02T14:39:09.925Z,48.70
2018-05-02T14:41:37.433Z,49.40
2018-05-02T14:44:05.067Z,50.20
2018-05-02T14:46:32.555Z,50.30
2018-05-02T14:49:00.061Z,49.60
2018-05-02T14:51:27.611Z,50.30
2018-05-02T14:53:55.882Z,49.40
2018-05-02T14:56:24.307Z,49.30
2018-05-02T14:58:51.973Z,49.70
2018-05-02T15:01:19.570Z,50.30
2018-05-02T15:03:47.838Z,50.10
2018-05-02T15:06:15.494Z,50.00
2018-05-02T15:08:42.997Z,50.50
2018-05-02T15:11:11.348Z,50.20
2018-05-02T15:13:39.737Z,51.20
2018-05-02T15:16:08.045Z,49.20
2018-05-02T15:18:35.711Z,49.10
2018-05-02T15:21:03.603Z,50.30
2018-05-02T15:23:31.105Z,50.80
2018-05-02T15:25:59.385Z,51.40
2018-05-02T15:28:27.769Z,51.90
2018-05-02T15:30:55.257Z,51.90
2018-05-02T15:33:22.905Z,52.60
2018-05-02T15:35:50.414Z,51.60
2018-05-02T15:38:17.902Z,51.80
2018-05-02T15:40:45.499Z,51.50
2018-05-02T15:43:13.074Z,51.80
2018-05-02T15:45:40.580Z,52.00
2018-05-02T15:48:08.111Z,50.80
2018-05-02T15:50:35.675Z,51.30
2018-05-02T15:53:03.318Z,51.70
2018-05-02T15:55:30.827Z,52.30
2018-05-02T15:57:58.424Z,51.40
2018-05-02T16:00:26.956Z,52.00
2018-05-02T16:02:55.972Z,52.10
2018-05-02T16:05:23.490Z,52.10
2018-05-02T16:07:51.160Z,52.60
2018-05-02T16:10:20.070Z,52.90
2018-05-02T16:12:47.552Z,52.80
2018-05-02T16:15:15.109Z,52.70
2018-05-02T16:17:43.312Z,53.70
2018-05-02T16:20:10.810Z,53.00
2018-05-02T16:22:38.324Z,54.00
2018-05-02T16:25:05.828Z,52.80
2018-05-02T16:27:33.407Z,54.00
2018-05-02T16:30:01.692Z,55.20
2018-05-02T16:32:29.198Z,54.50
2018-05-02T16:34:57.466Z,55.90
2018-05-02T16:37:25.052Z,55.60
2018-05-02T16:39:53.308Z,54.60
2018-05-02T16:42:21.575Z,54.60
2018-05-02T16:44:49.094Z,54.60
2018-05-02T16:47:16.648Z,55.20
2018-05-02T16:49:44.392Z,54.80
2018-05-02T16:52:12.628Z,55.10
2018-05-02T16:54:40.148Z,55.00
2018-05-02T16:57:07.684Z,55.80
2018-05-02T16:59:35.194Z,56.10
2018-05-02T17:02:02.764Z,56.50
2018-05-02T17:04:30.340Z,56.40
2018-05-02T17:06:57.845Z,56.50
2018-05-02T17:09:25.372Z,56.90
2018-05-02T17:11:53.746Z,57.30
2018-05-02T17:14:22.032Z,57.40
2018-05-02T17:16:49.596Z,57.40
2018-05-02T17:19:17.758Z,57.50
2018-05-02T17:21:46.084Z,57.20
2018-05-02T17:24:13.568Z,57.10
2018-05-02T17:26:41.075Z,58.00
2018-05-02T17:29:08.758Z,58.30
2018-05-02T17:31:36.208Z,58.20
2018-05-02T17:34:03.729Z,58.40
2018-05-02T17:36:31.997Z,58.80
2018-05-02T17:39:00.280Z,59.30
2018-05-02T17:41:31.350Z,58.50
2018-05-02T17:43:58.893Z,58.40
2018-05-02T17:46:26.555Z,59.00
2018-05-02T17:48:54.817Z,59.30
2018-05-02T17:51:23.169Z,59.20
2018-05-02T17:53:50.715Z,59.20
2018-05-02T17:56:18.214Z,59.50
2018-05-02T17:58:46.560Z,60.80
2018-05-02T18:01:14.169Z,60.80
2018-05-02T18:03:41.710Z,61.00
2018-05-02T18:06:09.204Z,61.40
2018-05-02T18:08:36.726Z,62.40
2018-05-02T18:11:05.060Z,62.50
2018-05-02T18:13:32.649Z,62.50
2018-05-02T18:16:00.638Z,61.60
2018-05-02T18:18:28.966Z,62.80
2018-05-02T18:20:56.510Z,62.80
2018-05-02T18:23:24.012Z,62.70
2018-05-02T18:25:51.528Z,63.00
2018-05-02T18:28:19.102Z,63.30
2018-05-02T18:30:47.631Z,63.10
2018-05-02T18:33:16.193Z,63.70
2018-05-02T18:35:43.743Z,63.60
2018-05-02T18:38:11.940Z,64.10
2018-05-02T18:40:40.326Z,65.10
2018-05-02T18:43:08.682Z,65.60
2018-05-02T18:45:36.371Z,65.60
2018-05-02T18:48:03.919Z,65.30
2018-05-02T18:50:31.429Z,64.40
2018-05-02T18:52:59.005Z,64.60
2018-05-02T18:55:26.676Z,64.60
2018-05-02T18:57:54.180Z,64.60
2018-05-02T19:00:21.680Z,64.90
2018-05-02T19:02:49.275Z,65.20
2018-05-02T19:05:16.796Z,65.40
2018-05-02T19:07:44.311Z,65.90
2018-05-02T19:10:11.864Z,66.40
2018-05-02T19:12:39.949Z,66.40
2018-05-02T19:15:09.451Z,66.70
2018-05-02T19:17:37.025Z,66.60
2018-05-02T19:20:10.235Z,67.60
2018-05-02T19:22:37.734Z,67.40
2018-05-02T19:25:11.903Z,67.60
2018-05-02T19:27:39.444Z,67.50
2018-05-02T19:30:06.989Z,67.70
2018-05-02T19:32:40.153Z,67.40
2018-05-02T19:35:08.653Z,68.80
2018-05-02T19:37:36.507Z,68.70
2018-05-02T19:40:10.407Z,69.50
2018-05-02T19:42:43.453Z,69.40
2018-05-02T19:45:11.848Z,70.30
2018-05-02T19:47:39.371Z,70.30
2018-05-02T19:50:06.873Z,70.80
2018-05-02T19:52:40.412Z,71.00
2018-05-02T19:55:08.027Z,70.40
2018-05-02T19:57:35.523Z,71.10
2018-05-02T20:00:03.798Z,71.40
2018-05-02T20:02:36.996Z,71.20
2018-05-02T20:05:05.358Z,71.30
2018-05-02T20:07:38.634Z,71.30
2018-05-02T20:10:13.252Z,71.40
2018-05-02T20:12:46.587Z,71.30
2018-05-02T20:15:14.852Z,71.20
2018-05-02T20:17:43.295Z,71.20
2018-05-02T20:20:10.807Z,71.20
2018-05-02T20:22:38.540Z,71.20
2018-05-02T20:25:06.099Z,71.50
2018-05-02T20:27:33.675Z,71.70
2018-05-02T20:30:01.970Z,72.70
2018-05-02T20:32:30.264Z,73.20
2018-05-02T20:34:57.959Z,73.20
2018-05-02T20:37:25.795Z,73.40
2018-05-02T20:39:53.408Z,73.70
2018-05-02T20:42:20.925Z,73.90
2018-05-02T20:44:48.937Z,74.60
2018-05-02T20:47:16.554Z,74.80
2018-05-02T20:49:44.887Z,75.50
2018-05-02T20:52:13.168Z,75.60
2018-05-02T20:54:40.691Z,75.60
2018-05-02T20:57:08.313Z,75.40
2018-05-02T20:59:35.800Z,75.80
2018-05-02T21:02:03.396Z,75.70
2018-05-02T21:04:31.652Z,75.20
2018-05-02T21:06:59.169Z,75.20
2018-05-02T21:09:26.675Z,74.80
2018-05-02T21:11:54.229Z,74.80
2018-05-02T21:14:21.754Z,74.30
2018-05-02T21:16:50.000Z,74.10
2018-05-02T21:19:17.524Z,74.10
2018-05-02T21:21:45.037Z,73.90
2018-05-02T21:24:12.561Z,74.00
2018-05-02T21:26:40.061Z,74.20
2018-05-02T21:29:18.283Z,74.10
2018-05-02T21:31:45.889Z,74.20
2018-05-02T21:34:13.447Z,74.20
2018-05-02T21:36:40.961Z,73.90
2018-05-02T21:39:08.470Z,74.10
2018-05-02T21:41:35.993Z,73.80
2018-05-02T21:44:03.483Z,73.50
2018-05-02T21:46:30.983Z,74.00
2018-05-02T21:48:58.514Z,73.90
2018-05-02T21:51:26.063Z,74.20
2018-05-02T21:53:53.569Z,74.60
2018-05-02T21:56:21.077Z,75.20
2018-05-02T21:58:48.577Z,74.80
2018-05-02T22:01:16.109Z,75.20
2018-05-02T22:03:43.600Z,76.40
2018-05-02T22:06:11.127Z,76.90
2018-05-02T22:08:38.659Z,76.60
2018-05-02T22:11:06.924Z,79.70
2018-05-02T22:13:35.215Z,80.80
2018-05-02T22:16:03.487Z,79.90
2018-05-02T22:18:31.883Z,79.20
2018-05-02T22:20:59.450Z,79.20
2018-05-02T22:23:26.910Z,79.10
2018-05-02T22:25:54.446Z,79.10
2018-05-02T22:28:21.939Z,78.80
2018-05-02T22:30:49.460Z,77.90
2018-05-02T22:33:17.724Z,79.10
2018-05-02T22:35:45.228Z,79.00
2018-05-02T22:38:12.759Z,79.20
2018-05-02T22:40:40.248Z,79.70
2018-05-02T22:43:07.757Z,79.50
2018-05-02T22:45:36.863Z,80.00
2018-05-02T22:48:05.164Z,80.80
2018-05-02T22:50:32.664Z,80.60
2018-05-02T22:53:00.229Z,81.70
2018-05-02T22:55:27.727Z,81.40
2018-05-02T22:57:55.228Z,80.70
2018-05-02T23:00:22.750Z,80.50
2018-05-02T23:02:50.296Z,82.60
2018-05-02T23:05:17.803Z,84.30
2018-05-02T23:07:45.321Z,85.20
2018-05-02T23:10:12.813Z,85.60
2018-05-02T23:12:40.337Z,85.30
2018-05-02T23:15:07.827Z,83.10
2018-05-02T23:17:35.337Z,83.00
2018-05-02T23:20:03.604Z,82.20
2018-05-02T23:22:31.114Z,82.10
2018-05-02T23:24:58.731Z,81.30
2018-05-02T23:27:26.996Z,80.60
2018-05-02T23:29:54.500Z,80.60
2018-05-02T23:32:22.001Z,81.90
2018-05-02T23:34:49.584Z,82.20
2018-05-02T23:37:17.848Z,82.90
2018-05-02T23:39:45.436Z,82.90
2018-05-02T23:42:12.988Z,83.00
2018-05-02T23:44:41.260Z,83.00
2018-05-02T23:47:09.510Z,83.00
2018-05-02T23:49:37.022Z,83.00
2018-05-02T23:52:04.525Z,83.10
2018-05-02T23:54:32.050Z,83.10
2018-05-02T23:56:59.545Z,83.10
2018-05-02T23:59:27.069Z,83.20
